sensor_id;sensor_type;location;lat;lon;timestamp;P1;durP1;ratioP1;P2;durP2;ratioP2
3299;SDS011;1662;49.310;8.134;2023-07-31T00:01:44;4.33;;;2.80;;
3299;SDS011;1662;49.310;8.134;2023-07-31T00:04:09;3.47;;;3.07;;
3299;SDS011;1662;49.310;8.134;2023-07-31T00:06:35;4.43;;;3.20;;
3299;SDS011;1662;49.310;8.134;2023-07-31T00:09:00;3.57;;;3.27;;
3299;SDS011;1662;49.310;8.134;2023-07-31T00:11:26;4.03;;;3.10;;
3299;SDS011;1662;49.310;8.134;2023-07-31T00:13:52;3.90;;;3.60;;
3299;SDS011;1662;49.310;8.134;2023-07-31T00:16:18;3.67;;;3.40;;
3299;SDS011;1662;49.310;8.134;2023-07-31T00:18:44;5.70;;;3.43;;
3299;SDS011;1662;49.310;8.134;2023-07-31T00:21:10;3.30;;;3.00;;
3299;SDS011;1662;49.310;8.134;2023-07-31T00:23:35;6.23;;;3.30;;
3299;SDS011;1662;49.310;8.134;2023-07-31T00:26:03;3.27;;;3.07;;
3299;SDS011;1662;49.310;8.134;2023-07-31T00:28:28;2.80;;;2.63;;
3299;SDS011;1662;49.310;8.134;2023-07-31T00:30:54;4.20;;;3.20;;
3299;SDS011;1662;49.310;8.134;2023-07-31T00:33:20;3.80;;;3.57;;
3299;SDS011;1662;49.310;8.134;2023-07-31T00:35:45;6.60;;;3.20;;
3299;SDS011;1662;49.310;8.134;2023-07-31T00:38:11;3.83;;;3.33;;
3299;SDS011;1662;49.310;8.134;2023-07-31T00:40:36;3.30;;;3.20;;
3299;SDS011;1662;49.310;8.134;2023-07-31T00:43:03;9.90;;;3.23;;
3299;SDS011;1662;49.310;8.134;2023-07-31T00:45:28;3.30;;;3.10;;
3299;SDS011;1662;49.310;8.134;2023-07-31T00:47:54;3.70;;;3.40;;
3299;SDS011;1662;49.310;8.134;2023-07-31T00:50:22;3.87;;;3.57;;
3299;SDS011;1662;49.310;8.134;2023-07-31T00:52:49;3.67;;;3.40;;
3299;SDS011;1662;49.310;8.134;2023-07-31T00:55:15;4.17;;;3.87;;
3299;SDS011;1662;49.310;8.134;2023-07-31T00:57:41;3.57;;;3.27;;
3299;SDS011;1662;49.310;8.134;2023-07-31T01:00:07;4.83;;;3.40;;
3299;SDS011;1662;49.310;8.134;2023-07-31T01:02:33;3.60;;;3.10;;
3299;SDS011;1662;49.310;8.134;2023-07-31T01:04:59;3.57;;;3.03;;
3299;SDS011;1662;49.310;8.134;2023-07-31T01:12:46;3.40;;;3.20;;
3299;SDS011;1662;49.310;8.134;2023-07-31T01:15:13;7.07;;;3.37;;
3299;SDS011;1662;49.310;8.134;2023-07-31T01:17:41;4.00;;;3.60;;
3299;SDS011;1662;49.310;8.134;2023-07-31T01:20:11;3.83;;;3.50;;
3299;SDS011;1662;49.310;8.134;2023-07-31T01:22:49;5.37;;;4.23;;
3299;SDS011;1662;49.310;8.134;2023-07-31T01:28:17;3.40;;;3.10;;
3299;SDS011;1662;49.310;8.134;2023-07-31T01:30:51;4.93;;;3.83;;
3299;SDS011;1662;49.310;8.134;2023-07-31T01:33:19;4.07;;;3.70;;
3299;SDS011;1662;49.310;8.134;2023-07-31T01:35:45;4.20;;;3.80;;
3299;SDS011;1662;49.310;8.134;2023-07-31T01:38:13;5.47;;;3.70;;
3299;SDS011;1662;49.310;8.134;2023-07-31T01:40:41;4.13;;;3.87;;
3299;SDS011;1662;49.310;8.134;2023-07-31T01:43:09;4.47;;;4.07;;
3299;SDS011;1662;49.310;8.134;2023-07-31T01:45:37;3.30;;;3.00;;
3299;SDS011;1662;49.310;8.134;2023-07-31T01:48:03;3.20;;;3.00;;
3299;SDS011;1662;49.310;8.134;2023-07-31T01:50:31;6.23;;;4.20;;
3299;SDS011;1662;49.310;8.134;2023-07-31T01:52:56;3.37;;;3.07;;
3299;SDS011;1662;49.310;8.134;2023-07-31T01:55:22;3.47;;;3.17;;
3299;SDS011;1662;49.310;8.134;2023-07-31T01:57:48;5.57;;;3.80;;
3299;SDS011;1662;49.310;8.134;2023-07-31T02:00:17;5.53;;;4.07;;
3299;SDS011;1662;49.310;8.134;2023-07-31T02:02:43;4.40;;;3.33;;
3299;SDS011;1662;49.310;8.134;2023-07-31T02:05:08;3.57;;;3.37;;
3299;SDS011;1662;49.310;8.134;2023-07-31T02:07:34;3.60;;;3.40;;
3299;SDS011;1662;49.310;8.134;2023-07-31T02:09:59;4.77;;;3.27;;
3299;SDS011;1662;49.310;8.134;2023-07-31T02:12:25;3.90;;;3.60;;
3299;SDS011;1662;49.310;8.134;2023-07-31T02:14:51;3.93;;;3.47;;
3299;SDS011;1662;49.310;8.134;2023-07-31T02:17:16;3.27;;;2.97;;
3299;SDS011;1662;49.310;8.134;2023-07-31T02:19:44;5.57;;;3.13;;
3299;SDS011;1662;49.310;8.134;2023-07-31T02:22:10;3.93;;;3.33;;
3299;SDS011;1662;49.310;8.134;2023-07-31T02:24:35;3.90;;;3.60;;
3299;SDS011;1662;49.310;8.134;2023-07-31T02:27:01;4.00;;;3.60;;
3299;SDS011;1662;49.310;8.134;2023-07-31T02:29:26;7.53;;;4.40;;
3299;SDS011;1662;49.310;8.134;2023-07-31T02:31:52;2.93;;;2.73;;
3299;SDS011;1662;49.310;8.134;2023-07-31T02:34:18;6.10;;;3.87;;
3299;SDS011;1662;49.310;8.134;2023-07-31T02:36:43;3.43;;;3.20;;
3299;SDS011;1662;49.310;8.134;2023-07-31T02:39:09;4.40;;;3.60;;
3299;SDS011;1662;49.310;8.134;2023-07-31T02:41:34;4.60;;;3.30;;
3299;SDS011;1662;49.310;8.134;2023-07-31T02:44:00;3.00;;;2.80;;
3299;SDS011;1662;49.310;8.134;2023-07-31T02:46:25;6.00;;;3.20;;
3299;SDS011;1662;49.310;8.134;2023-07-31T02:48:51;3.33;;;3.03;;
3299;SDS011;1662;49.310;8.134;2023-07-31T02:51:17;3.43;;;3.13;;
3299;SDS011;1662;49.310;8.134;2023-07-31T02:53:42;4.23;;;3.30;;
3299;SDS011;1662;49.310;8.134;2023-07-31T02:56:08;3.50;;;3.30;;
3299;SDS011;1662;49.310;8.134;2023-07-31T02:58:33;7.80;;;3.20;;
3299;SDS011;1662;49.310;8.134;2023-07-31T03:00:59;3.30;;;3.10;;
3299;SDS011;1662;49.310;8.134;2023-07-31T03:03:24;4.47;;;3.60;;
3299;SDS011;1662;49.310;8.134;2023-07-31T03:05:50;6.03;;;3.60;;
3299;SDS011;1662;49.310;8.134;2023-07-31T03:08:16;5.40;;;3.07;;
3299;SDS011;1662;49.310;8.134;2023-07-31T03:10:41;4.77;;;3.33;;
3299;SDS011;1662;49.310;8.134;2023-07-31T03:13:07;4.27;;;3.97;;
3299;SDS011;1662;49.310;8.134;2023-07-31T03:15:32;6.23;;;3.73;;
3299;SDS011;1662;49.310;8.134;2023-07-31T03:17:58;3.40;;;3.10;;
3299;SDS011;1662;49.310;8.134;2023-07-31T03:20:23;8.20;;;3.83;;
3299;SDS011;1662;49.310;8.134;2023-07-31T03:22:49;6.23;;;3.93;;
3299;SDS011;1662;49.310;8.134;2023-07-31T03:25:15;3.73;;;3.20;;
3299;SDS011;1662;49.310;8.134;2023-07-31T03:27:45;7.43;;;3.63;;
3299;SDS011;1662;49.310;8.134;2023-07-31T03:30:13;5.10;;;3.50;;
3299;SDS011;1662;49.310;8.134;2023-07-31T03:32:41;3.40;;;3.20;;
3299;SDS011;1662;49.310;8.134;2023-07-31T03:35:06;4.20;;;3.80;;
3299;SDS011;1662;49.310;8.134;2023-07-31T03:37:32;3.53;;;3.20;;
3299;SDS011;1662;49.310;8.134;2023-07-31T03:39:57;3.60;;;3.30;;
3299;SDS011;1662;49.310;8.134;2023-07-31T03:42:23;5.50;;;3.33;;
3299;SDS011;1662;49.310;8.134;2023-07-31T03:44:52;3.87;;;3.57;;
3299;SDS011;1662;49.310;8.134;2023-07-31T03:47:20;4.73;;;3.40;;
3299;SDS011;1662;49.310;8.134;2023-07-31T03:49:48;4.20;;;3.80;;
3299;SDS011;1662;49.310;8.134;2023-07-31T03:52:16;7.00;;;3.70;;
3299;SDS011;1662;49.310;8.134;2023-07-31T03:54:41;5.20;;;4.27;;
3299;SDS011;1662;49.310;8.134;2023-07-31T03:57:12;3.07;;;2.87;;
3299;SDS011;1662;49.310;8.134;2023-07-31T03:59:38;5.40;;;3.43;;
3299;SDS011;1662;49.310;8.134;2023-07-31T04:02:05;4.07;;;3.13;;
3299;SDS011;1662;49.310;8.134;2023-07-31T04:04:31;3.60;;;3.13;;
3299;SDS011;1662;49.310;8.134;2023-07-31T04:06:57;4.73;;;3.40;;
3299;SDS011;1662;49.310;8.134;2023-07-31T04:09:22;5.07;;;2.90;;
3299;SDS011;1662;49.310;8.134;2023-07-31T04:11:48;3.43;;;3.17;;
3299;SDS011;1662;49.310;8.134;2023-07-31T04:14:13;4.23;;;3.13;;
3299;SDS011;1662;49.310;8.134;2023-07-31T04:16:39;3.00;;;2.77;;
3299;SDS011;1662;49.310;8.134;2023-07-31T04:19:05;5.90;;;3.33;;
3299;SDS011;1662;49.310;8.134;2023-07-31T04:21:30;4.00;;;3.70;;
3299;SDS011;1662;49.310;8.134;2023-07-31T04:23:56;5.73;;;3.13;;
3299;SDS011;1662;49.310;8.134;2023-07-31T04:26:23;3.93;;;3.13;;
3299;SDS011;1662;49.310;8.134;2023-07-31T04:28:49;5.10;;;3.67;;
3299;SDS011;1662;49.310;8.134;2023-07-31T04:31:17;4.33;;;3.33;;
3299;SDS011;1662;49.310;8.134;2023-07-31T04:33:43;4.17;;;3.73;;
3299;SDS011;1662;49.310;8.134;2023-07-31T04:36:08;3.97;;;3.43;;
3299;SDS011;1662;49.310;8.134;2023-07-31T04:38:34;4.83;;;3.30;;
3299;SDS011;1662;49.310;8.134;2023-07-31T04:40:59;5.23;;;3.33;;
3299;SDS011;1662;49.310;8.134;2023-07-31T04:43:25;4.60;;;4.20;;
3299;SDS011;1662;49.310;8.134;2023-07-31T04:45:50;4.47;;;3.07;;
3299;SDS011;1662;49.310;8.134;2023-07-31T04:48:16;6.20;;;3.40;;
3299;SDS011;1662;49.310;8.134;2023-07-31T04:50:42;3.80;;;3.60;;
3299;SDS011;1662;49.310;8.134;2023-07-31T04:53:07;3.03;;;2.80;;
3299;SDS011;1662;49.310;8.134;2023-07-31T04:55:33;3.37;;;3.10;;
3299;SDS011;1662;49.310;8.134;2023-07-31T04:58:01;6.43;;;3.27;;
3299;SDS011;1662;49.310;8.134;2023-07-31T05:00:26;4.53;;;3.67;;
3299;SDS011;1662;49.310;8.134;2023-07-31T05:02:52;3.47;;;3.17;;
3299;SDS011;1662;49.310;8.134;2023-07-31T05:05:17;4.30;;;3.87;;
3299;SDS011;1662;49.310;8.134;2023-07-31T05:07:45;3.13;;;2.83;;
3299;SDS011;1662;49.310;8.134;2023-07-31T05:10:13;3.90;;;3.53;;
3299;SDS011;1662;49.310;8.134;2023-07-31T05:12:39;4.33;;;3.37;;
3299;SDS011;1662;49.310;8.134;2023-07-31T05:15:05;4.87;;;3.00;;
3299;SDS011;1662;49.310;8.134;2023-07-31T05:17:31;7.07;;;3.20;;
3299;SDS011;1662;49.310;8.134;2023-07-31T05:19:57;3.73;;;2.80;;
3299;SDS011;1662;49.310;8.134;2023-07-31T05:22:25;4.10;;;3.67;;
3299;SDS011;1662;49.310;8.134;2023-07-31T05:24:50;4.60;;;3.10;;
3299;SDS011;1662;49.310;8.134;2023-07-31T05:27:16;3.53;;;3.10;;
3299;SDS011;1662;49.310;8.134;2023-07-31T05:29:43;4.23;;;3.93;;
3299;SDS011;1662;49.310;8.134;2023-07-31T05:32:09;3.40;;;3.20;;
3299;SDS011;1662;49.310;8.134;2023-07-31T05:34:35;4.33;;;3.70;;
3299;SDS011;1662;49.310;8.134;2023-07-31T05:37:01;3.07;;;2.77;;
3299;SDS011;1662;49.310;8.134;2023-07-31T05:39:26;4.30;;;2.90;;
3299;SDS011;1662;49.310;8.134;2023-07-31T05:41:52;3.27;;;3.07;;
3299;SDS011;1662;49.310;8.134;2023-07-31T05:44:17;3.73;;;3.30;;
3299;SDS011;1662;49.310;8.134;2023-07-31T05:46:43;2.97;;;2.87;;
3299;SDS011;1662;49.310;8.134;2023-07-31T05:49:08;7.30;;;4.17;;
3299;SDS011;1662;49.310;8.134;2023-07-31T05:51:34;3.33;;;2.87;;
3299;SDS011;1662;49.310;8.134;2023-07-31T05:53:59;4.17;;;3.20;;
3299;SDS011;1662;49.310;8.134;2023-07-31T05:56:25;3.33;;;2.90;;
3299;SDS011;1662;49.310;8.134;2023-07-31T05:58:52;3.60;;;3.30;;
3299;SDS011;1662;49.310;8.134;2023-07-31T06:01:17;3.07;;;2.80;;
3299;SDS011;1662;49.310;8.134;2023-07-31T06:03:43;3.60;;;3.30;;
3299;SDS011;1662;49.310;8.134;2023-07-31T06:06:09;3.60;;;3.27;;
3299;SDS011;1662;49.310;8.134;2023-07-31T06:08:34;3.10;;;2.90;;
3299;SDS011;1662;49.310;8.134;2023-07-31T06:11:00;3.43;;;3.20;;
3299;SDS011;1662;49.310;8.134;2023-07-31T06:13:26;5.40;;;2.93;;
3299;SDS011;1662;49.310;8.134;2023-07-31T06:15:51;7.43;;;3.67;;
3299;SDS011;1662;49.310;8.134;2023-07-31T06:18:17;3.77;;;3.47;;
3299;SDS011;1662;49.310;8.134;2023-07-31T06:20:42;4.17;;;3.70;;
3299;SDS011;1662;49.310;8.134;2023-07-31T06:23:08;4.50;;;3.60;;
3299;SDS011;1662;49.310;8.134;2023-07-31T06:25:34;4.53;;;3.40;;
3299;SDS011;1662;49.310;8.134;2023-07-31T06:27:59;4.27;;;3.10;;
3299;SDS011;1662;49.310;8.134;2023-07-31T06:30:25;3.20;;;2.90;;
3299;SDS011;1662;49.310;8.134;2023-07-31T06:32:50;3.77;;;3.47;;
3299;SDS011;1662;49.310;8.134;2023-07-31T06:35:16;6.30;;;3.57;;
3299;SDS011;1662;49.310;8.134;2023-07-31T06:37:41;7.67;;;3.20;;
3299;SDS011;1662;49.310;8.134;2023-07-31T06:40:09;4.00;;;3.10;;
3299;SDS011;1662;49.310;8.134;2023-07-31T06:42:35;3.50;;;3.13;;
3299;SDS011;1662;49.310;8.134;2023-07-31T06:45:01;5.53;;;3.40;;
3299;SDS011;1662;49.310;8.134;2023-07-31T06:47:27;5.57;;;3.43;;
3299;SDS011;1662;49.310;8.134;2023-07-31T06:49:53;2.90;;;2.73;;
3299;SDS011;1662;49.310;8.134;2023-07-31T06:52:18;3.27;;;3.07;;
3299;SDS011;1662;49.310;8.134;2023-07-31T06:54:44;7.40;;;3.87;;
3299;SDS011;1662;49.310;8.134;2023-07-31T06:57:25;5.53;;;3.97;;
3299;SDS011;1662;49.310;8.134;2023-07-31T06:59:50;2.93;;;2.70;;
3299;SDS011;1662;49.310;8.134;2023-07-31T07:02:16;4.50;;;3.30;;
3299;SDS011;1662;49.310;8.134;2023-07-31T07:04:41;3.57;;;3.27;;
3299;SDS011;1662;49.310;8.134;2023-07-31T07:07:07;4.10;;;3.00;;
3299;SDS011;1662;49.310;8.134;2023-07-31T07:09:32;3.90;;;3.57;;
3299;SDS011;1662;49.310;8.134;2023-07-31T07:11:58;3.37;;;3.07;;
3299;SDS011;1662;49.310;8.134;2023-07-31T07:14:23;6.30;;;3.23;;
3299;SDS011;1662;49.310;8.134;2023-07-31T07:16:52;5.93;;;2.70;;
3299;SDS011;1662;49.310;8.134;2023-07-31T07:19:18;6.83;;;3.40;;
3299;SDS011;1662;49.310;8.134;2023-07-31T07:21:43;3.07;;;2.87;;
3299;SDS011;1662;49.310;8.134;2023-07-31T07:24:09;3.40;;;3.00;;
3299;SDS011;1662;49.310;8.134;2023-07-31T07:26:34;3.40;;;3.20;;
3299;SDS011;1662;49.310;8.134;2023-07-31T07:29:00;5.17;;;3.10;;
3299;SDS011;1662;49.310;8.134;2023-07-31T07:31:27;8.10;;;3.27;;
3299;SDS011;1662;49.310;8.134;2023-07-31T07:33:53;4.00;;;3.13;;
3299;SDS011;1662;49.310;8.134;2023-07-31T07:36:22;3.77;;;3.43;;
3299;SDS011;1662;49.310;8.134;2023-07-31T07:38:47;4.57;;;3.27;;
3299;SDS011;1662;49.310;8.134;2023-07-31T07:41:13;3.07;;;2.87;;
3299;SDS011;1662;49.310;8.134;2023-07-31T07:43:38;3.90;;;3.43;;
3299;SDS011;1662;49.310;8.134;2023-07-31T07:46:04;3.97;;;3.33;;
3299;SDS011;1662;49.310;8.134;2023-07-31T07:48:29;5.67;;;3.30;;
3299;SDS011;1662;49.310;8.134;2023-07-31T07:50:55;3.43;;;3.03;;
3299;SDS011;1662;49.310;8.134;2023-07-31T07:53:21;4.50;;;3.60;;
3299;SDS011;1662;49.310;8.134;2023-07-31T07:55:46;4.63;;;3.20;;
3299;SDS011;1662;49.310;8.134;2023-07-31T07:58:12;3.70;;;3.40;;
3299;SDS011;1662;49.310;8.134;2023-07-31T08:00:37;3.03;;;2.90;;
3299;SDS011;1662;49.310;8.134;2023-07-31T08:03:04;9.10;;;3.10;;
3299;SDS011;1662;49.310;8.134;2023-07-31T08:05:29;3.70;;;3.40;;
3299;SDS011;1662;49.310;8.134;2023-07-31T08:07:59;4.40;;;4.00;;
3299;SDS011;1662;49.310;8.134;2023-07-31T08:10:24;3.50;;;3.20;;
3299;SDS011;1662;49.310;8.134;2023-07-31T08:12:50;3.40;;;3.10;;
3299;SDS011;1662;49.310;8.134;2023-07-31T08:15:16;2.70;;;2.50;;
3299;SDS011;1662;49.310;8.134;2023-07-31T08:17:41;3.17;;;2.90;;
3299;SDS011;1662;49.310;8.134;2023-07-31T08:20:07;4.50;;;3.57;;
3299;SDS011;1662;49.310;8.134;2023-07-31T08:22:33;4.00;;;3.37;;
3299;SDS011;1662;49.310;8.134;2023-07-31T08:24:59;4.57;;;3.70;;
3299;SDS011;1662;49.310;8.134;2023-07-31T08:27:24;5.80;;;3.70;;
3299;SDS011;1662;49.310;8.134;2023-07-31T08:29:51;4.70;;;3.60;;
3299;SDS011;1662;49.310;8.134;2023-07-31T08:32:17;7.27;;;3.80;;
3299;SDS011;1662;49.310;8.134;2023-07-31T08:34:43;3.70;;;3.40;;
3299;SDS011;1662;49.310;8.134;2023-07-31T08:37:09;4.10;;;3.70;;
3299;SDS011;1662;49.310;8.134;2023-07-31T08:39:36;5.03;;;3.67;;
3299;SDS011;1662;49.310;8.134;2023-07-31T08:42:07;7.00;;;3.63;;
3299;SDS011;1662;49.310;8.134;2023-07-31T08:44:33;4.07;;;3.40;;
3299;SDS011;1662;49.310;8.134;2023-07-31T08:47:00;10.10;;;4.07;;
3299;SDS011;1662;49.310;8.134;2023-07-31T08:49:26;5.97;;;4.00;;
3299;SDS011;1662;49.310;8.134;2023-07-31T08:51:54;4.03;;;3.63;;
3299;SDS011;1662;49.310;8.134;2023-07-31T08:54:20;3.40;;;3.20;;
3299;SDS011;1662;49.310;8.134;2023-07-31T08:56:46;3.97;;;3.67;;
3299;SDS011;1662;49.310;8.134;2023-07-31T08:59:12;4.40;;;4.10;;
3299;SDS011;1662;49.310;8.134;2023-07-31T09:01:41;4.27;;;3.80;;
3299;SDS011;1662;49.310;8.134;2023-07-31T09:04:11;5.33;;;4.30;;
3299;SDS011;1662;49.310;8.134;2023-07-31T09:06:39;9.70;;;3.87;;
3299;SDS011;1662;49.310;8.134;2023-07-31T09:09:05;6.17;;;4.10;;
3299;SDS011;1662;49.310;8.134;2023-07-31T09:11:31;7.33;;;4.03;;
3299;SDS011;1662;49.310;8.134;2023-07-31T09:13:57;8.57;;;3.90;;
3299;SDS011;1662;49.310;8.134;2023-07-31T09:16:29;3.53;;;3.23;;
3299;SDS011;1662;49.310;8.134;2023-07-31T09:18:58;4.20;;;3.60;;
3299;SDS011;1662;49.310;8.134;2023-07-31T09:21:26;4.83;;;3.60;;
3299;SDS011;1662;49.310;8.134;2023-07-31T09:23:53;7.13;;;3.90;;
3299;SDS011;1662;49.310;8.134;2023-07-31T09:26:32;4.37;;;3.97;;
3299;SDS011;1662;49.310;8.134;2023-07-31T09:28:58;6.00;;;3.90;;
3299;SDS011;1662;49.310;8.134;2023-07-31T09:33:59;7.47;;;3.60;;
3299;SDS011;1662;49.310;8.134;2023-07-31T09:36:28;4.30;;;3.90;;
3299;SDS011;1662;49.310;8.134;2023-07-31T09:38:55;4.17;;;3.67;;
3299;SDS011;1662;49.310;8.134;2023-07-31T09:41:23;6.10;;;3.60;;
3299;SDS011;1662;49.310;8.134;2023-07-31T09:43:55;5.87;;;3.90;;
3299;SDS011;1662;49.310;8.134;2023-07-31T09:46:20;5.00;;;3.40;;
3299;SDS011;1662;49.310;8.134;2023-07-31T09:48:49;4.60;;;3.83;;
3299;SDS011;1662;49.310;8.134;2023-07-31T09:51:15;8.03;;;4.10;;
3299;SDS011;1662;49.310;8.134;2023-07-31T09:53:40;8.27;;;4.10;;
3299;SDS011;1662;49.310;8.134;2023-07-31T09:56:06;6.57;;;3.80;;
3299;SDS011;1662;49.310;8.134;2023-07-31T09:58:32;3.90;;;3.60;;
3299;SDS011;1662;49.310;8.134;2023-07-31T10:01:00;4.07;;;3.63;;
3299;SDS011;1662;49.310;8.134;2023-07-31T10:03:27;4.13;;;3.73;;
3299;SDS011;1662;49.310;8.134;2023-07-31T10:05:56;5.50;;;4.00;;
3299;SDS011;1662;49.310;8.134;2023-07-31T10:08:23;4.60;;;4.07;;
3299;SDS011;1662;49.310;8.134;2023-07-31T10:10:58;4.67;;;4.47;;
3299;SDS011;1662;49.310;8.134;2023-07-31T10:13:25;5.13;;;4.23;;
3299;SDS011;1662;49.310;8.134;2023-07-31T10:15:53;5.40;;;4.20;;
3299;SDS011;1662;49.310;8.134;2023-07-31T10:18:19;6.57;;;4.77;;
3299;SDS011;1662;49.310;8.134;2023-07-31T10:20:45;4.60;;;3.80;;
3299;SDS011;1662;49.310;8.134;2023-07-31T10:23:12;4.97;;;4.47;;
3299;SDS011;1662;49.310;8.134;2023-07-31T10:25:38;5.13;;;3.97;;
3299;SDS011;1662;49.310;8.134;2023-07-31T10:28:04;5.03;;;4.53;;
3299;SDS011;1662;49.310;8.134;2023-07-31T10:30:31;5.87;;;4.30;;
3299;SDS011;1662;49.310;8.134;2023-07-31T10:32:59;8.00;;;4.87;;
3299;SDS011;1662;49.310;8.134;2023-07-31T10:35:25;4.57;;;4.17;;
3299;SDS011;1662;49.310;8.134;2023-07-31T10:37:52;8.50;;;5.00;;
3299;SDS011;1662;49.310;8.134;2023-07-31T10:42:48;4.77;;;4.37;;
3299;SDS011;1662;49.310;8.134;2023-07-31T10:45:25;5.10;;;4.60;;
3299;SDS011;1662;49.310;8.134;2023-07-31T10:48:00;4.50;;;4.07;;
3299;SDS011;1662;49.310;8.134;2023-07-31T10:50:27;4.10;;;3.90;;
3299;SDS011;1662;49.310;8.134;2023-07-31T10:52:54;4.47;;;4.07;;
3299;SDS011;1662;49.310;8.134;2023-07-31T10:55:25;4.80;;;4.50;;
3299;SDS011;1662;49.310;8.134;2023-07-31T10:57:55;4.00;;;3.70;;
3299;SDS011;1662;49.310;8.134;2023-07-31T11:00:27;4.33;;;4.03;;
3299;SDS011;1662;49.310;8.134;2023-07-31T11:03:00;4.83;;;4.40;;
3299;SDS011;1662;49.310;8.134;2023-07-31T11:08:32;6.47;;;4.50;;
3299;SDS011;1662;49.310;8.134;2023-07-31T11:13:31;4.73;;;4.20;;
3299;SDS011;1662;49.310;8.134;2023-07-31T11:15:59;5.70;;;4.40;;
3299;SDS011;1662;49.310;8.134;2023-07-31T11:18:25;4.27;;;3.90;;
3299;SDS011;1662;49.310;8.134;2023-07-31T11:20:52;4.53;;;4.30;;
3299;SDS011;1662;49.310;8.134;2023-07-31T11:23:21;6.20;;;4.00;;
3299;SDS011;1662;49.310;8.134;2023-07-31T11:25:47;5.60;;;5.00;;
3299;SDS011;1662;49.310;8.134;2023-07-31T11:28:14;6.63;;;4.83;;
3299;SDS011;1662;49.310;8.134;2023-07-31T11:30:42;5.17;;;4.67;;
3299;SDS011;1662;49.310;8.134;2023-07-31T11:33:09;5.13;;;4.70;;
3299;SDS011;1662;49.310;8.134;2023-07-31T11:35:43;4.73;;;4.30;;
3299;SDS011;1662;49.310;8.134;2023-07-31T11:40:52;6.40;;;4.43;;
3299;SDS011;1662;49.310;8.134;2023-07-31T11:43:22;9.03;;;4.80;;
3299;SDS011;1662;49.310;8.134;2023-07-31T11:45:52;4.50;;;4.10;;
3299;SDS011;1662;49.310;8.134;2023-07-31T11:48:26;4.10;;;3.90;;
3299;SDS011;1662;49.310;8.134;2023-07-31T11:50:57;5.60;;;5.10;;
3299;SDS011;1662;49.310;8.134;2023-07-31T11:56:09;8.20;;;5.07;;
3299;SDS011;1662;49.310;8.134;2023-07-31T11:58:38;4.37;;;4.03;;
3299;SDS011;1662;49.310;8.134;2023-07-31T12:01:05;5.33;;;4.30;;
3299;SDS011;1662;49.310;8.134;2023-07-31T12:03:32;6.20;;;5.57;;
3299;SDS011;1662;49.310;8.134;2023-07-31T12:05:58;5.00;;;4.60;;
3299;SDS011;1662;49.310;8.134;2023-07-31T12:08:24;5.07;;;4.77;;
3299;SDS011;1662;49.310;8.134;2023-07-31T12:10:50;5.37;;;4.87;;
3299;SDS011;1662;49.310;8.134;2023-07-31T12:13:21;5.07;;;4.60;;
3299;SDS011;1662;49.310;8.134;2023-07-31T12:15:53;4.07;;;3.87;;
3299;SDS011;1662;49.310;8.134;2023-07-31T12:18:21;4.17;;;3.97;;
3299;SDS011;1662;49.310;8.134;2023-07-31T12:20:53;4.80;;;4.50;;
3299;SDS011;1662;49.310;8.134;2023-07-31T12:23:27;5.23;;;4.73;;
3299;SDS011;1662;49.310;8.134;2023-07-31T12:26:06;5.70;;;5.20;;
3299;SDS011;1662;49.310;8.134;2023-07-31T12:31:15;4.50;;;4.10;;
3299;SDS011;1662;49.310;8.134;2023-07-31T12:33:45;4.70;;;4.37;;
3299;SDS011;1662;49.310;8.134;2023-07-31T12:36:12;5.00;;;4.60;;
3299;SDS011;1662;49.310;8.134;2023-07-31T12:38:40;5.07;;;4.50;;
3299;SDS011;1662;49.310;8.134;2023-07-31T12:41:06;5.10;;;4.60;;
3299;SDS011;1662;49.310;8.134;2023-07-31T12:43:33;7.30;;;5.40;;
3299;SDS011;1662;49.310;8.134;2023-07-31T12:45:59;4.90;;;4.50;;
3299;SDS011;1662;49.310;8.134;2023-07-31T12:48:24;5.40;;;4.90;;
3299;SDS011;1662;49.310;8.134;2023-07-31T12:50:50;5.70;;;5.20;;
3299;SDS011;1662;49.310;8.134;2023-07-31T12:53:16;4.87;;;4.57;;
3299;SDS011;1662;49.310;8.134;2023-07-31T12:55:41;5.40;;;5.00;;
3299;SDS011;1662;49.310;8.134;2023-07-31T12:58:09;5.37;;;4.90;;
3299;SDS011;1662;49.310;8.134;2023-07-31T13:00:35;4.87;;;4.47;;
3299;SDS011;1662;49.310;8.134;2023-07-31T13:03:01;5.43;;;5.07;;
3299;SDS011;1662;49.310;8.134;2023-07-31T13:05:30;6.43;;;5.77;;
3299;SDS011;1662;49.310;8.134;2023-07-31T13:07:56;4.87;;;4.57;;
3299;SDS011;1662;49.310;8.134;2023-07-31T13:10:22;5.73;;;4.80;;
3299;SDS011;1662;49.310;8.134;2023-07-31T13:12:48;11.73;;;5.20;;
3299;SDS011;1662;49.310;8.134;2023-07-31T13:15:14;6.90;;;5.10;;
3299;SDS011;1662;49.310;8.134;2023-07-31T13:17:40;7.57;;;5.23;;
3299;SDS011;1662;49.310;8.134;2023-07-31T13:20:06;5.27;;;4.83;;
3299;SDS011;1662;49.310;8.134;2023-07-31T13:22:32;5.87;;;4.97;;
3299;SDS011;1662;49.310;8.134;2023-07-31T13:24:58;6.83;;;4.90;;
3299;SDS011;1662;49.310;8.134;2023-07-31T13:27:23;5.93;;;5.13;;
3299;SDS011;1662;49.310;8.134;2023-07-31T13:29:49;5.27;;;4.90;;
3299;SDS011;1662;49.310;8.134;2023-07-31T13:32:18;5.20;;;4.90;;
3299;SDS011;1662;49.310;8.134;2023-07-31T13:34:45;5.47;;;5.00;;
3299;SDS011;1662;49.310;8.134;2023-07-31T13:37:12;5.37;;;4.90;;
3299;SDS011;1662;49.310;8.134;2023-07-31T13:39:38;4.93;;;4.70;;
3299;SDS011;1662;49.310;8.134;2023-07-31T13:42:04;5.00;;;4.73;;
3299;SDS011;1662;49.310;8.134;2023-07-31T13:44:36;7.37;;;5.77;;
3299;SDS011;1662;49.310;8.134;2023-07-31T13:47:04;8.23;;;5.53;;
3299;SDS011;1662;49.310;8.134;2023-07-31T13:49:30;5.80;;;5.27;;
3299;SDS011;1662;49.310;8.134;2023-07-31T13:51:56;5.30;;;4.90;;
3299;SDS011;1662;49.310;8.134;2023-07-31T13:54:23;4.53;;;4.30;;
3299;SDS011;1662;49.310;8.134;2023-07-31T13:56:49;5.00;;;4.70;;
3299;SDS011;1662;49.310;8.134;2023-07-31T13:59:14;6.40;;;4.90;;
3299;SDS011;1662;49.310;8.134;2023-07-31T14:01:41;8.20;;;4.70;;
3299;SDS011;1662;49.310;8.134;2023-07-31T14:04:10;7.13;;;4.87;;
3299;SDS011;1662;49.310;8.134;2023-07-31T14:06:36;5.30;;;4.80;;
3299;SDS011;1662;49.310;8.134;2023-07-31T14:09:02;5.90;;;5.50;;
3299;SDS011;1662;49.310;8.134;2023-07-31T14:11:28;6.27;;;5.37;;
3299;SDS011;1662;49.310;8.134;2023-07-31T14:13:54;5.27;;;4.87;;
3299;SDS011;1662;49.310;8.134;2023-07-31T14:16:21;8.20;;;5.70;;
3299;SDS011;1662;49.310;8.134;2023-07-31T14:18:47;6.13;;;5.43;;
3299;SDS011;1662;49.310;8.134;2023-07-31T14:21:12;4.83;;;4.60;;
3299;SDS011;1662;49.310;8.134;2023-07-31T14:23:39;4.60;;;4.30;;
3299;SDS011;1662;49.310;8.134;2023-07-31T14:26:05;5.60;;;5.10;;
3299;SDS011;1662;49.310;8.134;2023-07-31T14:28:33;4.30;;;4.10;;
3299;SDS011;1662;49.310;8.134;2023-07-31T14:30:59;4.63;;;4.33;;
3299;SDS011;1662;49.310;8.134;2023-07-31T14:33:24;4.77;;;4.30;;
3299;SDS011;1662;49.310;8.134;2023-07-31T14:35:50;5.20;;;4.80;;
3299;SDS011;1662;49.310;8.134;2023-07-31T14:38:15;4.97;;;4.47;;
3299;SDS011;1662;49.310;8.134;2023-07-31T14:40:41;4.70;;;4.30;;
3299;SDS011;1662;49.310;8.134;2023-07-31T14:43:07;4.93;;;4.43;;
3299;SDS011;1662;49.310;8.134;2023-07-31T14:45:33;5.60;;;5.20;;
3299;SDS011;1662;49.310;8.134;2023-07-31T14:47:58;4.20;;;4.00;;
3299;SDS011;1662;49.310;8.134;2023-07-31T14:50:29;4.57;;;4.17;;
3299;SDS011;1662;49.310;8.134;2023-07-31T14:52:55;5.20;;;4.80;;
3299;SDS011;1662;49.310;8.134;2023-07-31T14:55:20;5.90;;;4.90;;
3299;SDS011;1662;49.310;8.134;2023-07-31T14:57:46;4.30;;;4.10;;
3299;SDS011;1662;49.310;8.134;2023-07-31T15:00:12;7.10;;;4.10;;
3299;SDS011;1662;49.310;8.134;2023-07-31T15:02:38;4.93;;;4.60;;
3299;SDS011;1662;49.310;8.134;2023-07-31T15:05:04;4.70;;;4.30;;
3299;SDS011;1662;49.310;8.134;2023-07-31T15:07:30;5.30;;;4.80;;
3299;SDS011;1662;49.310;8.134;2023-07-31T15:09:56;4.80;;;4.50;;
3299;SDS011;1662;49.310;8.134;2023-07-31T15:12:24;4.73;;;4.33;;
3299;SDS011;1662;49.310;8.134;2023-07-31T15:14:51;4.93;;;4.17;;
3299;SDS011;1662;49.310;8.134;2023-07-31T15:17:17;5.63;;;5.00;;
3299;SDS011;1662;49.310;8.134;2023-07-31T15:19:42;5.07;;;4.70;;
3299;SDS011;1662;49.310;8.134;2023-07-31T15:22:08;5.47;;;4.93;;
3299;SDS011;1662;49.310;8.134;2023-07-31T15:24:34;5.70;;;5.20;;
3299;SDS011;1662;49.310;8.134;2023-07-31T15:27:00;7.20;;;5.00;;
3299;SDS011;1662;49.310;8.134;2023-07-31T15:29:28;4.73;;;4.40;;
3299;SDS011;1662;49.310;8.134;2023-07-31T15:31:54;4.70;;;4.30;;
3299;SDS011;1662;49.310;8.134;2023-07-31T15:34:20;5.07;;;4.67;;
3299;SDS011;1662;49.310;8.134;2023-07-31T15:36:46;4.83;;;4.47;;
3299;SDS011;1662;49.310;8.134;2023-07-31T15:39:12;5.57;;;4.57;;